Latest Weather Observations for Dennes Point

IDT60901

Issued at 6:21 pm EST Tuesday 21 April 2015 (issued every 10 minutes, with the page automatically refreshed every 10 minutes)

About weather observations | Map of Hobart area stations | Latest observations for Hobart area | Other Formats
Station Details ID: 094255 Name: DENNES POINT Lat: -43.06 Lon: 147.36 Height: 5.67 m
Data from the previous 72 hours. | See also: Recent months at Dennes Point
Date/Time
EST
Tmp

°C
App
Tmp
°C
Dew
Point
°C
Rel
Hum
%
Delta-T

°C
Wind Press
QNH
hPa
Press
MSL
hPa
Rain
since
9 am
mm
Dir
 
Spd
km/h
Gust
km/h
Spd
kts
Gust
kts
21/06:00pm 14.4 12.5 10.6 78 2.0 ESE 11 13 6 7 1032.0 1032.0 0.0
21/05:30pm 14.4 12.4 10.0 75 2.3 ESE 11 15 6 8 1031.8 1031.8 0.0
21/05:00pm 14.5 12.1 9.9 74 2.4 ESE 13 17 7 9 1031.6 1031.6 0.0
21/04:30pm 14.7 12.6 9.9 73 2.5 ESE 11 15 6 8 1031.7 1031.7 0.0
21/04:00pm 15.1 13.0 9.7 70 2.8 ESE 11 13 6 7 1031.6 1031.6 0.0
21/03:30pm 15.2 13.4 9.6 69 2.9 ESE 9 11 5 6 1031.5 1031.5 0.0
21/03:00pm 15.2 13.8 9.6 69 2.9 ESE 7 9 4 5 1031.6 1031.6 0.0
21/02:30pm 15.1 13.8 9.9 71 2.7 ESE 7 9 4 5 1031.6 1031.6 0.0
21/02:00pm 15.4 13.9 10.6 73 2.5 E 9 11 5 6 1031.5 1031.5 0.0
21/01:30pm 15.5 13.5 10.3 71 2.7 E 11 13 6 7 1031.7 1031.7 0.0
21/01:00pm 15.9 14.2 9.8 67 3.2 ESE 9 13 5 7 1031.9 1031.9 0.0
21/12:30pm 15.8 14.6 9.5 66 3.3 NE 6 6 3 3 1032.3 1032.3 0.0
21/12:00pm 16.2 15.1 10.5 69 3.0 NNE 7 7 4 4 1032.7 1032.7 0.0
21/11:30am 15.2 13.0 9.3 68 3.0 NNE 11 13 6 7 1033.1 1033.1 0.0
21/11:00am 15.3 12.9 9.9 70 2.8 NNE 13 15 7 8 1033.2 1033.2 0.0
21/10:30am 14.9 13.7 9.7 71 2.7 NNE 6 9 3 5 1033.4 1033.4 0.0
21/10:00am 14.6 13.9 8.5 67 3.0 NE 2 6 1 3 1033.4 1033.4 0.0
21/09:30am 14.6 13.5 8.5 67 3.1 N 4 4 2 2 1033.5 1033.5 0.0
21/09:00am 14.5 13.5 8.7 68 2.9 N 4 6 2 3 1033.6 1033.6 0.0
21/08:30am 13.6 11.6 8.7 72 2.5 N 9 11 5 6 1033.9 1033.9 0.0
21/08:00am 13.5 12.5 7.5 67 2.9 NNW 2 6 1 3 1033.7 1033.7 0.0
21/07:30am 13.3 11.1 7.7 69 2.7 N 9 11 5 6 1033.4 1033.4 0.0
21/07:00am 12.7 11.4 7.6 71 2.5 W 4 7 2 4 1033.2 1033.2 0.0
21/06:30am 13.0 11.3 7.5 69 2.7 N 6 7 3 4 1032.9 1032.9 0.0
21/06:00am 12.9 11.4 6.9 67 2.9 NW 4 7 2 4 1032.9 1032.9 0.0
21/05:30am 12.9 10.6 7.4 69 2.7 NNW 9 11 5 6 1032.9 1032.9 0.0
21/05:00am 12.7 10.6 6.7 67 2.8 NW 7 13 4 7 1032.9 1032.9 0.0
21/04:30am 12.7 10.0 7.2 69 2.7 N 11 13 6 7 1032.9 1032.9 0.0
21/04:00am 12.5 10.6 7.4 71 2.5 NW 7 19 4 10 1032.8 1032.8 0.0
21/03:30am 11.2 9.1 6.5 73 2.2 W 7 13 4 7 1032.8 1032.8 0.0
21/03:00am 12.2 9.9 7.3 72 2.3 N 9 13 5 7 1032.8 1032.8 0.0
21/02:30am 12.5 10.6 7.6 72 2.4 NNW 7 11 4 6 1032.9 1032.9 0.0
21/02:00am 12.2 9.5 7.5 73 2.3 N 11 15 6 8 1033.1 1033.1 0.0
21/01:30am 11.5 10.0 6.6 72 2.3 SW 4 6 2 3 1033.3 1033.3 0.0
21/01:00am 11.5 10.0 6.8 73 2.2 SW 4 6 2 3 1033.3 1033.3 0.0
21/12:30am 11.1 9.2 6.5 73 2.2 WSW 6 6 3 3 1033.4 1033.4 0.0
21/12:00am 11.2 9.3 6.7 74 2.1 W 6 9 3 5 1033.5 1033.5 0.0
 
Date/Time
EST
Tmp

°C
App
Tmp
°C
Dew
Point
°C
Rel
Hum
%
Delta-T

°C
Wind Press
QNH
hPa
Press
MSL
hPa
Rain
since
9 am
mm
Dir
 
Spd
km/h
Gust
km/h
Spd
kts
Gust
kts
20/11:30pm 10.8 8.8 6.4 74 2.1 SW 6 9 3 5 1033.7 1033.7 0.0
20/11:00pm 11.2 9.1 6.5 73 2.2 W 7 9 4 5 1033.7 1033.7 0.0
20/10:30pm 12.6 10.4 6.4 66 2.9 NNW 7 13 4 7 1033.9 1033.9 0.0
20/10:00pm 12.7 10.6 6.7 67 2.8 NNW 7 9 4 5 1034.2 1034.2 0.0
20/09:30pm 13.1 10.7 6.9 66 3.0 NW 9 13 5 7 1034.2 1034.2 0.0
20/09:00pm 13.0 10.6 6.8 66 2.9 WNW 9 13 5 7 1034.3 1034.3 0.0
20/08:30pm 13.1 10.5 6.2 63 3.3 NW 9 19 5 10 1034.1 1034.1 0.0
20/08:00pm 13.3 11.1 6.4 63 3.3 NW 7 9 4 5 1034.1 1034.1 0.0
20/07:30pm 12.9 10.4 6.5 65 3.1 W 9 17 5 9 1034.0 1034.0 0.0
20/07:00pm 13.0 9.3 6.4 64 3.1 WSW 15 19 8 10 1033.9 1033.9 0.0
20/06:30pm 13.1 9.7 6.0 62 3.4 WSW 13 19 7 10 1033.8 1033.8 0.0
20/06:00pm 13.0 9.6 5.9 62 3.3 W 13 22 7 12 1033.7 1033.7 0.0
20/05:30pm 13.3 9.9 5.9 61 3.5 WSW 13 20 7 11 1033.5 1033.5 0.0
20/05:00pm 13.8 9.5 5.4 57 3.9 WSW 17 22 9 12 1033.4 1033.4 0.0
20/04:30pm 13.9 10.0 5.3 56 4.0 WSW 15 22 8 12 1033.3 1033.3 0.0
20/04:00pm 14.6 11.2 5.9 56 4.1 WSW 13 17 7 9 1033.4 1033.4 0.0
20/03:30pm 14.5 10.1 5.0 53 4.4 W 17 22 9 12 1033.5 1033.5 0.0
20/03:00pm 15.4 11.8 5.0 50 4.9 W 13 19 7 10 1033.6 1033.6 0.0
20/02:30pm 14.9 10.7 5.7 54 4.4 W 17 26 9 14 1033.6 1033.6 0.0
20/02:00pm 15.3 10.6 5.2 51 4.7 W 19 24 10 13 1033.7 1033.7 0.0
20/01:30pm 15.6 11.6 4.9 49 5.0 W 15 19 8 10 1034.0 1034.0 0.0
20/01:00pm 15.2 10.9 5.4 52 4.6 W 17 24 9 13 1034.3 1034.3 0.0
20/12:30pm 14.2 10.9 4.8 53 4.4 W 11 19 6 10 1034.8 1034.8 0.0
20/12:00pm 13.6 11.4 3.1 49 4.6 WNW 4 6 2 3 1035.2 1035.2 0.0
20/11:30am 14.4 12.8 4.4 51 4.6 W 2 6 1 3 1035.6 1035.6 0.0
20/11:00am 13.5 11.4 4.1 53 4.2 N 4 6 2 3 1035.9 1035.9 0.0
20/10:30am 12.3 9.8 4.8 60 3.4 N 7 11 4 6 1035.9 1035.9 0.0
20/10:00am 11.7 8.5 5.1 64 3.0 N 11 15 6 8 1035.8 1035.8 0.0
20/09:30am 11.7 8.9 5.1 64 3.0 N 9 11 5 6 1036.0 1036.0 0.0
20/09:00am 10.4 6.4 4.8 68 2.5 NNE 15 17 8 9 1036.2 1036.2 0.0
20/08:30am 11.0 7.4 2.8 57 3.5 WNW 11 13 6 7 1036.1 1036.1 0.0
20/08:00am 10.2 6.5 2.3 58 3.3 WNW 11 15 6 8 1035.9 1035.9 0.0
20/07:30am 8.6 5.7 2.4 65 2.6 W 7 11 4 6 1035.7 1035.7 0.0
20/07:00am 7.5 4.5 1.8 67 2.3 W 7 11 4 6 1035.3 1035.3 0.0
20/06:30am 8.9 5.6 2.5 64 2.7 WNW 9 11 5 6 1035.2 1035.2 0.0
20/06:00am 7.5 4.5 1.8 67 2.3 W 7 11 4 6 1035.0 1035.0 0.0
20/05:30am 7.9 4.2 2.2 67 2.4 W 11 13 6 7 1034.7 1034.7 0.0
20/05:00am 8.6 4.9 2.6 66 2.5 WNW 11 15 6 8 1034.5 1034.5 0.0
20/04:30am 7.6 4.2 1.7 66 2.4 WNW 9 13 5 7 1034.4 1034.4 0.0
20/04:00am 8.4 4.7 2.4 66 2.5 WNW 11 15 6 8 1034.3 1034.3 0.0
20/03:30am 8.5 4.8 2.3 65 2.6 WNW 11 15 6 8 1034.3 1034.3 0.0
20/03:00am 9.1 5.8 2.7 64 2.7 NW 9 13 5 7 1034.3 1034.3 0.0
20/02:30am 8.8 4.7 2.4 64 2.7 WNW 13 19 7 10 1034.5 1034.5 0.0
20/02:00am 8.6 5.4 2.8 67 2.4 WNW 9 15 5 8 1034.6 1034.6 0.0
20/01:30am 8.3 5.1 3.0 69 2.2 W 9 13 5 7 1034.4 1034.4 0.0
20/01:00am 7.5 4.2 2.2 69 2.2 W 9 13 5 7 1034.4 1034.4 0.0
20/12:30am 8.4 4.4 2.8 68 2.4 W 13 19 7 10 1034.3 1034.3 0.0
20/12:00am 8.6 3.5 3.2 69 2.3 W 19 22 10 12 1034.1 1034.1 0.0
 
Date/Time
EST
Tmp

°C
App
Tmp
°C
Dew
Point
°C
Rel
Hum
%
Delta-T

°C
Wind Press
QNH
hPa
Press
MSL
hPa
Rain
since
9 am
mm
Dir
 
Spd
km/h
Gust
km/h
Spd
kts
Gust
kts
19/11:30pm 8.2 4.2 2.9 69 2.2 W 13 17 7 9 1034.0 1034.0 0.0
19/11:00pm 8.0 3.6 2.9 70 2.1 W 15 17 8 9 1034.0 1034.0 0.0
19/10:30pm 8.1 4.9 2.8 69 2.2 WNW 9 13 5 7 1034.0 1034.0 0.0
19/10:00pm 8.5 5.2 2.7 67 2.4 WNW 9 15 5 8 1033.8 1033.8 0.0
19/09:30pm 8.5 4.9 2.7 67 2.4 W 11 15 6 8 1033.7 1033.7 0.0
19/09:00pm 8.9 3.6 3.1 67 2.5 W 20 26 11 14 1033.4 1033.4 0.0
19/08:30pm 8.8 3.5 3.0 67 2.5 W 20 28 11 15 1033.0 1033.0 0.0
19/08:00pm 8.9 3.5 2.5 64 2.7 W 20 26 11 14 1032.3 1032.3 0.0
19/07:30pm 9.1 4.4 3.3 67 2.5 W 17 26 9 14 1031.9 1031.9 0.0
19/07:00pm 8.9 4.1 2.7 65 2.6 W 17 24 9 13 1031.4 1031.4 0.0
19/06:30pm 9.5 3.7 2.4 61 3.0 WSW 22 30 12 16 1031.0 1031.0 0.0
19/06:00pm 9.7 3.9 2.3 60 3.1 WSW 22 28 12 15 1030.3 1030.3 0.0
19/05:30pm 10.1 4.9 2.5 59 3.2 WSW 19 26 10 14 1029.9 1029.9 0.0
19/05:00pm 10.8 5.3 2.1 55 3.7 WSW 20 28 11 15 1029.3 1029.3 0.0
19/04:30pm 11.8 7.0 2.5 53 4.0 SW 17 24 9 13 1028.9 1028.9 0.0
19/04:00pm 10.8 6.6 1.4 52 3.9 SSW 13 19 7 10 1028.6 1028.6 0.0
19/03:30pm 12.2 7.7 2.1 50 4.3 SSW 15 20 8 11 1028.1 1028.1 0.0
19/03:00pm 13.0 7.3 -0.6 39 5.5 SW 19 30 10 16 1027.8 1027.8 0.0
19/02:30pm 12.9 7.6 -0.4 40 5.5 SW 17 24 9 13 1027.5 1027.5 0.0
19/02:00pm 12.7 7.2 -2.0 36 5.8 SW 17 28 9 15 1027.2 1027.2 0.0
19/01:30pm 12.7 7.1 -0.2 41 5.3 SW 19 30 10 16 1026.9 1026.9 0.0
19/01:00pm 12.2 5.2 -0.3 42 5.1 SW 26 39 14 21 1026.6 1026.6 0.0
19/12:30pm 12.2 6.2 0.9 46 4.7 SW 22 30 12 16 1026.5 1026.5 0.0
19/12:00pm 10.2 6.1 2.3 58 3.3 SSW 13 19 7 10 1026.5 1026.5 0.0
19/11:30am 11.4 6.2 2.2 53 3.9 SW 19 22 10 12 1026.1 1026.1 0.0
19/11:00am 10.7 5.4 2.8 58 3.4 SW 20 37 11 20 1026.0 1026.0 0.0
19/10:30am 9.1 4.8 3.3 67 2.5 SSW 15 22 8 12 1025.6 1025.6 0.0
19/10:00am 9.4 1.5 2.0 60 3.1 WSW 33 43 18 23 1024.9 1024.9 0.0
19/09:30am 10.0 3.9 2.6 60 3.2 WSW 24 35 13 19 1024.3 1024.3 0.0
19/09:00am 9.4 3.3 2.7 63 2.8 WSW 24 33 13 18 1023.8 1023.8 2.0
19/08:30am 8.7 1.1 3.1 68 2.4 WSW 32 46 17 25 1023.3 1023.3 2.0
19/08:00am 8.8 2.7 2.6 65 2.6 SW 24 35 13 19 1022.5 1022.5 2.0
19/07:30am 8.3 2.3 3.4 71 2.1 WSW 24 30 13 16 1021.3 1021.3 2.0
19/07:00am 8.5 1.4 3.8 72 2.0 WSW 30 35 16 19 1020.6 1020.6 2.0
19/06:30am 8.5 1.7 2.9 68 2.4 WSW 28 35 15 19 1019.8 1019.8 2.0
19/06:00am 8.5 2.5 3.1 69 2.3 WSW 24 30 13 16 1019.0 1019.0 2.0
19/05:30am 8.7 2.3 3.3 69 2.3 WSW 26 33 14 18 1018.3 1018.3 2.0
19/05:00am 8.6 2.0 4.0 73 2.0 WSW 28 35 15 19 1017.2 1017.2 2.0
19/04:30am 8.2 1.9 5.5 83 1.2 WSW 28 35 15 19 1016.5 1016.5 2.0
19/04:00am 7.9 3.1 5.7 86 1.0 SW 20 30 11 16 1016.1 1016.1 2.0
19/03:33am 7.7 0.9 5.0 83 1.2 SW 30 48 16 26 1015.5 1015.5 1.0
19/03:30am 7.8 0.6 4.9 82 1.3 SW 32 48 17 26 1015.4 1015.4 0.8
19/03:27am 8.0 1.5 4.9 81 1.4 SW 28 48 15 26 1015.2 1015.2 0.8
19/03:00am 8.3 2.7 5.4 82 1.3 SW 24 33 13 18 1014.4 1014.4 0.8
19/02:47am 8.5 2.2 5.8 83 1.2 SW 28 48 15 26 1014.3 1014.3 0.6
19/02:30am 8.3 5.3 5.8 84 1.1 SSW 11 17 6 9 1014.0 1014.0 0.6
19/02:00am 8.9 2.6 5.6 80 1.5 SW 28 43 15 23 1013.6 1013.6 0.2
19/01:43am 9.9 5.0 5.3 73 2.1 SW 20 39 11 21 1013.1 1013.1 0.0
19/01:30am 9.3 6.4 4.9 74 2.0 WSW 9 17 5 9 1012.7 1012.7 0.0
19/01:00am 9.8 6.2 5.2 73 2.1 SW 13 19 7 10 1012.3 1012.3 0.0
19/12:30am 10.1 4.8 5.1 71 2.3 WSW 22 30 12 16 1011.7 1011.7 0.0
19/12:00am 10.9 4.9 5.2 68 2.6 WSW 26 33 14 18 1011.0 1011.0 0.0
 
Date/Time
EST
Tmp

°C
App
Tmp
°C
Dew
Point
°C
Rel
Hum
%
Delta-T

°C
Wind Press
QNH
hPa
Press
MSL
hPa
Rain
since
9 am
mm
Dir
 
Spd
km/h
Gust
km/h
Spd
kts
Gust
kts
18/11:30pm 11.0 6.0 4.7 65 2.8 WSW 20 28 11 15 1010.6 1010.6 0.0
18/11:00pm 11.1 6.5 3.9 61 3.2 W 17 35 9 19 1010.0 1010.0 0.0
18/10:30pm 11.3 5.9 4.5 63 3.1 W 22 30 12 16 1009.8 1009.8 0.0
18/10:00pm 11.5 6.4 4.0 60 3.4 W 20 28 11 15 1009.4 1009.4 0.0
18/09:30pm 11.6 6.0 5.5 66 2.8 W 24 33 13 18 1008.9 1008.9 0.0
18/09:00pm 11.5 5.4 4.7 63 3.1 W 26 32 14 17 1008.7 1008.6 0.0
18/08:30pm 12.2 7.1 6.0 66 2.9 W 22 33 12 18 1008.0 1007.9 0.0
18/08:00pm 12.0 6.4 5.2 63 3.1 W 24 32 13 17 1007.4 1007.3 0.0
18/07:30pm 12.3 5.5 5.2 62 3.3 WSW 30 41 16 22 1007.0 1006.9 0.0
18/07:00pm 12.4 6.4 5.3 62 3.3 WSW 26 37 14 20 1006.5 1006.4 0.0
18/06:49pm 12.6 6.1 4.8 59 3.6 W 28 43 15 23 1006.2 1006.1 0.0
18/06:30pm 12.8 8.4 4.8 58 3.7 WNW 17 22 9 12 1005.8 1005.7 0.0

Latest Capital City Observations: Canberra | Sydney | Melbourne | Brisbane | Adelaide | Perth | Hobart | Darwin

Other Formats:

Comma delimited format used in spreadsheet applications
http://www.bom.gov.au/fwo/IDT60901/IDT60901.94988.axf

JavaScript Object Notation format (JSON) in row-major order
http://www.bom.gov.au/fwo/IDT60901/IDT60901.94988.json